sensor_id;sensor_type;location;lat;lon;timestamp;temperature;humidity
21861;DHT22;11095;48.066;8.540;2023-05-07T00:00:46;11.30;99.90
21861;DHT22;11095;48.066;8.540;2023-05-07T00:03:12;11.30;99.90
21861;DHT22;11095;48.066;8.540;2023-05-07T00:05:39;11.30;99.90
21861;DHT22;11095;48.066;8.540;2023-05-07T00:08:05;11.20;99.90
21861;DHT22;11095;48.066;8.540;2023-05-07T00:10:30;11.20;99.90
21861;DHT22;11095;48.066;8.540;2023-05-07T00:12:56;11.20;99.90
21861;DHT22;11095;48.066;8.540;2023-05-07T00:15:22;11.20;99.90
21861;DHT22;11095;48.066;8.540;2023-05-07T00:17:47;11.10;99.90
21861;DHT22;11095;48.066;8.540;2023-05-07T00:20:13;11.10;99.90
21861;DHT22;11095;48.066;8.540;2023-05-07T00:22:38;11.10;99.90
21861;DHT22;11095;48.066;8.540;2023-05-07T00:25:05;11.00;99.90
21861;DHT22;11095;48.066;8.540;2023-05-07T00:27:31;11.00;99.90
21861;DHT22;11095;48.066;8.540;2023-05-07T00:29:56;11.00;99.90
21861;DHT22;11095;48.066;8.540;2023-05-07T00:32:22;11.00;99.90
21861;DHT22;11095;48.066;8.540;2023-05-07T00:34:47;11.00;99.90
21861;DHT22;11095;48.066;8.540;2023-05-07T00:37:13;10.90;99.90
21861;DHT22;11095;48.066;8.540;2023-05-07T00:39:39;10.90;99.90
21861;DHT22;11095;48.066;8.540;2023-05-07T00:42:04;10.80;99.90
21861;DHT22;11095;48.066;8.540;2023-05-07T00:44:30;10.80;99.90
21861;DHT22;11095;48.066;8.540;2023-05-07T00:46:57;10.80;99.90
21861;DHT22;11095;48.066;8.540;2023-05-07T00:49:26;10.80;99.90
21861;DHT22;11095;48.066;8.540;2023-05-07T00:51:58;10.80;99.90
21861;DHT22;11095;48.066;8.540;2023-05-07T00:54:25;10.70;99.90
21861;DHT22;11095;48.066;8.540;2023-05-07T00:56:51;10.70;99.90
21861;DHT22;11095;48.066;8.540;2023-05-07T00:59:17;10.70;99.90
21861;DHT22;11095;48.066;8.540;2023-05-07T01:01:43;10.70;99.90
21861;DHT22;11095;48.066;8.540;2023-05-07T01:04:09;10.70;99.90
21861;DHT22;11095;48.066;8.540;2023-05-07T01:06:34;10.70;99.90
21861;DHT22;11095;48.066;8.540;2023-05-07T01:09:00;10.70;99.90
21861;DHT22;11095;48.066;8.540;2023-05-07T01:11:26;10.70;99.90
21861;DHT22;11095;48.066;8.540;2023-05-07T01:13:52;10.70;99.90
21861;DHT22;11095;48.066;8.540;2023-05-07T01:16:18;10.70;99.90
21861;DHT22;11095;48.066;8.540;2023-05-07T01:18:44;10.70;99.90
21861;DHT22;11095;48.066;8.540;2023-05-07T01:21:11;10.70;99.90
21861;DHT22;11095;48.066;8.540;2023-05-07T01:23:37;10.70;99.90
21861;DHT22;11095;48.066;8.540;2023-05-07T01:26:03;10.70;99.90
21861;DHT22;11095;48.066;8.540;2023-05-07T01:28:29;10.70;99.90
21861;DHT22;11095;48.066;8.540;2023-05-07T01:30:59;10.60;99.90
21861;DHT22;11095;48.066;8.540;2023-05-07T01:33:27;10.60;99.90
21861;DHT22;11095;48.066;8.540;2023-05-07T01:35:55;10.60;99.90
21861;DHT22;11095;48.066;8.540;2023-05-07T01:38:22;10.60;99.90
21861;DHT22;11095;48.066;8.540;2023-05-07T01:40:48;10.60;99.90
21861;DHT22;11095;48.066;8.540;2023-05-07T01:43:14;10.60;99.90
21861;DHT22;11095;48.066;8.540;2023-05-07T01:45:41;10.60;99.90
21861;DHT22;11095;48.066;8.540;2023-05-07T01:48:09;10.50;99.90
21861;DHT22;11095;48.066;8.540;2023-05-07T01:50:36;10.50;99.90
21861;DHT22;11095;48.066;8.540;2023-05-07T01:53:02;10.50;99.90
21861;DHT22;11095;48.066;8.540;2023-05-07T01:55:28;10.50;99.90
21861;DHT22;11095;48.066;8.540;2023-05-07T01:57:53;10.50;99.90
21861;DHT22;11095;48.066;8.540;2023-05-07T02:00:19;10.50;99.90
21861;DHT22;11095;48.066;8.540;2023-05-07T02:02:45;10.50;99.90
21861;DHT22;11095;48.066;8.540;2023-05-07T02:05:11;10.40;99.90
21861;DHT22;11095;48.066;8.540;2023-05-07T02:07:36;10.40;99.90
21861;DHT22;11095;48.066;8.540;2023-05-07T02:10:02;10.40;99.90
21861;DHT22;11095;48.066;8.540;2023-05-07T02:12:28;10.40;99.90
21861;DHT22;11095;48.066;8.540;2023-05-07T02:14:54;10.30;99.90
21861;DHT22;11095;48.066;8.540;2023-05-07T02:17:19;10.30;99.90
21861;DHT22;11095;48.066;8.540;2023-05-07T02:19:45;10.30;99.90
21861;DHT22;11095;48.066;8.540;2023-05-07T02:22:11;10.20;99.90
21861;DHT22;11095;48.066;8.540;2023-05-07T02:24:36;10.20;99.90
21861;DHT22;11095;48.066;8.540;2023-05-07T02:27:02;10.10;99.90
21861;DHT22;11095;48.066;8.540;2023-05-07T02:29:28;10.10;99.90
21861;DHT22;11095;48.066;8.540;2023-05-07T02:31:54;10.00;99.90
21861;DHT22;11095;48.066;8.540;2023-05-07T02:34:21;10.00;99.90
21861;DHT22;11095;48.066;8.540;2023-05-07T02:36:46;9.90;99.90
21861;DHT22;11095;48.066;8.540;2023-05-07T02:39:13;9.90;99.90
21861;DHT22;11095;48.066;8.540;2023-05-07T02:41:39;9.80;99.90
21861;DHT22;11095;48.066;8.540;2023-05-07T02:44:05;9.80;99.90
21861;DHT22;11095;48.066;8.540;2023-05-07T02:46:30;9.70;99.90
21861;DHT22;11095;48.066;8.540;2023-05-07T02:48:56;9.70;99.90
21861;DHT22;11095;48.066;8.540;2023-05-07T02:51:22;9.60;99.90
21861;DHT22;11095;48.066;8.540;2023-05-07T02:53:48;9.60;99.90
21861;DHT22;11095;48.066;8.540;2023-05-07T02:56:14;9.50;99.90
21861;DHT22;11095;48.066;8.540;2023-05-07T02:58:40;9.50;99.90
21861;DHT22;11095;48.066;8.540;2023-05-07T03:01:07;9.40;99.90
21861;DHT22;11095;48.066;8.540;2023-05-07T03:03:33;9.40;99.90
21861;DHT22;11095;48.066;8.540;2023-05-07T03:05:59;9.40;99.90
21861;DHT22;11095;48.066;8.540;2023-05-07T03:08:25;9.30;99.90
21861;DHT22;11095;48.066;8.540;2023-05-07T03:10:51;9.30;99.90
21861;DHT22;11095;48.066;8.540;2023-05-07T03:13:16;9.30;99.90
21861;DHT22;11095;48.066;8.540;2023-05-07T03:15:42;9.20;99.90
21861;DHT22;11095;48.066;8.540;2023-05-07T03:18:08;9.20;99.90
21861;DHT22;11095;48.066;8.540;2023-05-07T03:20:34;9.20;99.90
21861;DHT22;11095;48.066;8.540;2023-05-07T03:23:00;9.20;99.90
21861;DHT22;11095;48.066;8.540;2023-05-07T03:25:25;9.10;99.90
21861;DHT22;11095;48.066;8.540;2023-05-07T03:27:51;9.10;99.90
21861;DHT22;11095;48.066;8.540;2023-05-07T03:30:17;9.10;99.90
21861;DHT22;11095;48.066;8.540;2023-05-07T03:32:42;9.00;99.90
21861;DHT22;11095;48.066;8.540;2023-05-07T03:35:08;9.00;99.90
21861;DHT22;11095;48.066;8.540;2023-05-07T03:37:34;9.00;99.90
21861;DHT22;11095;48.066;8.540;2023-05-07T03:40:00;9.00;99.90
21861;DHT22;11095;48.066;8.540;2023-05-07T03:42:25;8.90;99.90
21861;DHT22;11095;48.066;8.540;2023-05-07T03:44:51;8.90;99.90
21861;DHT22;11095;48.066;8.540;2023-05-07T03:47:17;8.90;99.90
21861;DHT22;11095;48.066;8.540;2023-05-07T03:49:42;8.90;99.90
21861;DHT22;11095;48.066;8.540;2023-05-07T03:52:08;8.90;99.90
21861;DHT22;11095;48.066;8.540;2023-05-07T03:54:33;8.90;99.90
21861;DHT22;11095;48.066;8.540;2023-05-07T03:56:59;8.90;99.90
21861;DHT22;11095;48.066;8.540;2023-05-07T03:59:25;8.90;99.90
21861;DHT22;11095;48.066;8.540;2023-05-07T04:01:50;8.80;99.90
21861;DHT22;11095;48.066;8.540;2023-05-07T04:04:16;8.90;99.90
21861;DHT22;11095;48.066;8.540;2023-05-07T04:06:42;8.90;99.90
21861;DHT22;11095;48.066;8.540;2023-05-07T04:09:08;8.90;99.90
21861;DHT22;11095;48.066;8.540;2023-05-07T04:11:35;8.90;99.90
21861;DHT22;11095;48.066;8.540;2023-05-07T04:14:00;8.90;99.90
21861;DHT22;11095;48.066;8.540;2023-05-07T04:16:26;9.00;99.90
21861;DHT22;11095;48.066;8.540;2023-05-07T04:18:51;9.30;99.90
21861;DHT22;11095;48.066;8.540;2023-05-07T04:21:18;9.80;99.90
21861;DHT22;11095;48.066;8.540;2023-05-07T04:23:45;10.30;99.90
21861;DHT22;11095;48.066;8.540;2023-05-07T04:26:11;10.70;99.90
21861;DHT22;11095;48.066;8.540;2023-05-07T04:28:36;11.10;99.90
21861;DHT22;11095;48.066;8.540;2023-05-07T04:31:02;11.20;99.90
21861;DHT22;11095;48.066;8.540;2023-05-07T04:33:28;11.40;99.90
21861;DHT22;11095;48.066;8.540;2023-05-07T04:35:53;11.50;99.90
21861;DHT22;11095;48.066;8.540;2023-05-07T04:38:19;11.60;99.90
21861;DHT22;11095;48.066;8.540;2023-05-07T04:40:45;11.60;99.90
21861;DHT22;11095;48.066;8.540;2023-05-07T04:43:12;11.60;99.90
21861;DHT22;11095;48.066;8.540;2023-05-07T04:45:38;11.50;99.90
21861;DHT22;11095;48.066;8.540;2023-05-07T04:48:07;11.40;99.90
21861;DHT22;11095;48.066;8.540;2023-05-07T04:50:32;11.40;99.90
21861;DHT22;11095;48.066;8.540;2023-05-07T04:52:58;11.40;99.90
21861;DHT22;11095;48.066;8.540;2023-05-07T04:55:24;11.40;99.90
21861;DHT22;11095;48.066;8.540;2023-05-07T04:57:49;11.40;99.90
21861;DHT22;11095;48.066;8.540;2023-05-07T05:00:15;11.60;99.90
21861;DHT22;11095;48.066;8.540;2023-05-07T05:02:42;12.00;99.90
21861;DHT22;11095;48.066;8.540;2023-05-07T05:05:07;12.70;99.90
21861;DHT22;11095;48.066;8.540;2023-05-07T05:07:33;13.70;99.90
21861;DHT22;11095;48.066;8.540;2023-05-07T05:09:59;14.80;99.90
21861;DHT22;11095;48.066;8.540;2023-05-07T05:12:25;16.20;99.90
21861;DHT22;11095;48.066;8.540;2023-05-07T05:14:50;17.50;99.90
21861;DHT22;11095;48.066;8.540;2023-05-07T05:17:16;18.60;99.90
21861;DHT22;11095;48.066;8.540;2023-05-07T05:19:42;19.70;99.90
21861;DHT22;11095;48.066;8.540;2023-05-07T05:22:07;20.30;99.90
21861;DHT22;11095;48.066;8.540;2023-05-07T05:24:33;20.70;99.90
21861;DHT22;11095;48.066;8.540;2023-05-07T05:26:58;21.20;99.90
21861;DHT22;11095;48.066;8.540;2023-05-07T05:29:28;21.50;99.90
21861;DHT22;11095;48.066;8.540;2023-05-07T05:31:53;22.00;99.90
21861;DHT22;11095;48.066;8.540;2023-05-07T05:34:19;22.40;99.90
21861;DHT22;11095;48.066;8.540;2023-05-07T05:36:45;22.70;99.90
21861;DHT22;11095;48.066;8.540;2023-05-07T05:39:11;23.30;99.90
21861;DHT22;11095;48.066;8.540;2023-05-07T05:41:38;23.80;99.90
21861;DHT22;11095;48.066;8.540;2023-05-07T05:44:03;24.50;99.90
21861;DHT22;11095;48.066;8.540;2023-05-07T05:46:29;24.90;99.90
21861;DHT22;11095;48.066;8.540;2023-05-07T05:48:55;25.30;99.90
21861;DHT22;11095;48.066;8.540;2023-05-07T05:51:21;25.70;99.90
21861;DHT22;11095;48.066;8.540;2023-05-07T05:53:47;26.20;99.90
21861;DHT22;11095;48.066;8.540;2023-05-07T05:56:12;26.50;99.90
21861;DHT22;11095;48.066;8.540;2023-05-07T05:58:38;26.40;99.90
21861;DHT22;11095;48.066;8.540;2023-05-07T06:01:04;26.20;99.90
21861;DHT22;11095;48.066;8.540;2023-05-07T06:03:30;26.00;99.90
21861;DHT22;11095;48.066;8.540;2023-05-07T06:05:57;25.50;99.90
21861;DHT22;11095;48.066;8.540;2023-05-07T06:08:23;25.00;99.90
21861;DHT22;11095;48.066;8.540;2023-05-07T06:10:49;24.50;99.90
21861;DHT22;11095;48.066;8.540;2023-05-07T06:13:15;24.00;99.90
21861;DHT22;11095;48.066;8.540;2023-05-07T06:15:40;23.50;99.90
21861;DHT22;11095;48.066;8.540;2023-05-07T06:18:06;23.00;99.90
21861;DHT22;11095;48.066;8.540;2023-05-07T06:20:31;22.30;99.90
21861;DHT22;11095;48.066;8.540;2023-05-07T06:22:57;21.80;99.90
21861;DHT22;11095;48.066;8.540;2023-05-07T06:25:23;21.40;99.90
21861;DHT22;11095;48.066;8.540;2023-05-07T06:27:48;21.30;99.90
21861;DHT22;11095;48.066;8.540;2023-05-07T06:30:14;21.20;99.90
21861;DHT22;11095;48.066;8.540;2023-05-07T06:32:40;21.60;99.90
21861;DHT22;11095;48.066;8.540;2023-05-07T06:35:06;22.60;99.90
21861;DHT22;11095;48.066;8.540;2023-05-07T06:37:32;24.20;99.90
21861;DHT22;11095;48.066;8.540;2023-05-07T06:39:58;25.60;99.90
21861;DHT22;11095;48.066;8.540;2023-05-07T06:42:23;25.80;99.90
21861;DHT22;11095;48.066;8.540;2023-05-07T06:44:49;25.20;99.90
21861;DHT22;11095;48.066;8.540;2023-05-07T06:47:14;24.50;99.90
21861;DHT22;11095;48.066;8.540;2023-05-07T06:49:40;23.80;99.90
21861;DHT22;11095;48.066;8.540;2023-05-07T06:52:06;23.30;99.90
21861;DHT22;11095;48.066;8.540;2023-05-07T06:54:31;23.30;99.90
21861;DHT22;11095;48.066;8.540;2023-05-07T06:56:57;24.30;99.90
21861;DHT22;11095;48.066;8.540;2023-05-07T06:59:23;25.70;99.90
21861;DHT22;11095;48.066;8.540;2023-05-07T07:01:49;27.20;99.90
21861;DHT22;11095;48.066;8.540;2023-05-07T07:04:15;27.90;99.90
21861;DHT22;11095;48.066;8.540;2023-05-07T07:06:40;27.90;99.90
21861;DHT22;11095;48.066;8.540;2023-05-07T07:09:06;28.40;99.90
21861;DHT22;11095;48.066;8.540;2023-05-07T07:11:32;29.20;99.90
21861;DHT22;11095;48.066;8.540;2023-05-07T07:13:58;30.40;99.10
21861;DHT22;11095;48.066;8.540;2023-05-07T07:16:24;31.60;96.80
21861;DHT22;11095;48.066;8.540;2023-05-07T07:18:50;32.50;94.70
21861;DHT22;11095;48.066;8.540;2023-05-07T07:21:16;33.40;91.80
21861;DHT22;11095;48.066;8.540;2023-05-07T07:23:41;32.70;90.90
21861;DHT22;11095;48.066;8.540;2023-05-07T07:26:07;32.10;90.40
21861;DHT22;11095;48.066;8.540;2023-05-07T07:28:33;32.20;90.30
21861;DHT22;11095;48.066;8.540;2023-05-07T07:30:58;32.20;88.40
21861;DHT22;11095;48.066;8.540;2023-05-07T07:33:24;32.00;86.60
21861;DHT22;11095;48.066;8.540;2023-05-07T07:35:50;30.50;86.90
21861;DHT22;11095;48.066;8.540;2023-05-07T07:38:15;29.10;88.90
21861;DHT22;11095;48.066;8.540;2023-05-07T07:40:41;27.60;91.00
21861;DHT22;11095;48.066;8.540;2023-05-07T07:43:07;26.30;93.00
21861;DHT22;11095;48.066;8.540;2023-05-07T07:45:32;25.00;94.50
21861;DHT22;11095;48.066;8.540;2023-05-07T07:47:58;24.00;96.30
21861;DHT22;11095;48.066;8.540;2023-05-07T07:50:24;23.30;97.50
21861;DHT22;11095;48.066;8.540;2023-05-07T07:52:49;22.60;99.10
21861;DHT22;11095;48.066;8.540;2023-05-07T07:55:15;22.50;99.90
21861;DHT22;11095;48.066;8.540;2023-05-07T07:57:46;23.40;99.90
21861;DHT22;11095;48.066;8.540;2023-05-07T08:00:12;24.90;99.00
21861;DHT22;11095;48.066;8.540;2023-05-07T08:02:38;26.30;96.90
21861;DHT22;11095;48.066;8.540;2023-05-07T08:05:04;27.20;96.00
21861;DHT22;11095;48.066;8.540;2023-05-07T08:07:29;28.20;94.80
21861;DHT22;11095;48.066;8.540;2023-05-07T08:09:55;29.30;93.20
21861;DHT22;11095;48.066;8.540;2023-05-07T08:12:21;30.00;92.10
21861;DHT22;11095;48.066;8.540;2023-05-07T08:14:47;30.30;91.30
21861;DHT22;11095;48.066;8.540;2023-05-07T08:17:12;30.60;90.90
21861;DHT22;11095;48.066;8.540;2023-05-07T08:19:41;31.10;89.90
21861;DHT22;11095;48.066;8.540;2023-05-07T08:22:07;31.10;89.00
21861;DHT22;11095;48.066;8.540;2023-05-07T08:24:32;30.90;86.90
21861;DHT22;11095;48.066;8.540;2023-05-07T08:26:58;30.80;87.80
21861;DHT22;11095;48.066;8.540;2023-05-07T08:29:24;30.70;88.30
21861;DHT22;11095;48.066;8.540;2023-05-07T08:31:49;30.60;88.40
21861;DHT22;11095;48.066;8.540;2023-05-07T08:34:15;30.80;88.10
21861;DHT22;11095;48.066;8.540;2023-05-07T08:36:41;31.00;88.00
21861;DHT22;11095;48.066;8.540;2023-05-07T08:39:07;31.30;88.40
21861;DHT22;11095;48.066;8.540;2023-05-07T08:41:33;31.20;87.30
21861;DHT22;11095;48.066;8.540;2023-05-07T08:43:59;31.20;86.40
21861;DHT22;11095;48.066;8.540;2023-05-07T08:46:31;31.20;85.10
21861;DHT22;11095;48.066;8.540;2023-05-07T08:48:57;31.20;84.80
21861;DHT22;11095;48.066;8.540;2023-05-07T08:51:23;31.40;83.80
21861;DHT22;11095;48.066;8.540;2023-05-07T08:53:49;31.40;83.80
21861;DHT22;11095;48.066;8.540;2023-05-07T08:56:16;31.30;83.00
21861;DHT22;11095;48.066;8.540;2023-05-07T08:58:45;30.40;84.10
21861;DHT22;11095;48.066;8.540;2023-05-07T09:01:14;29.80;86.00
21861;DHT22;11095;48.066;8.540;2023-05-07T09:03:40;29.40;86.80
21861;DHT22;11095;48.066;8.540;2023-05-07T09:06:07;29.00;89.20
21861;DHT22;11095;48.066;8.540;2023-05-07T09:08:33;29.00;90.30
21861;DHT22;11095;48.066;8.540;2023-05-07T09:10:59;29.10;90.30
21861;DHT22;11095;48.066;8.540;2023-05-07T09:13:26;29.00;89.40
21861;DHT22;11095;48.066;8.540;2023-05-07T09:15:52;28.60;89.80
21861;DHT22;11095;48.066;8.540;2023-05-07T09:18:18;27.90;90.50
21861;DHT22;11095;48.066;8.540;2023-05-07T09:20:44;26.70;91.90
21861;DHT22;11095;48.066;8.540;2023-05-07T09:23:09;25.30;93.20
21861;DHT22;11095;48.066;8.540;2023-05-07T09:25:36;24.50;94.80
21861;DHT22;11095;48.066;8.540;2023-05-07T09:28:03;24.40;95.60
21861;DHT22;11095;48.066;8.540;2023-05-07T09:30:30;24.50;96.00
21861;DHT22;11095;48.066;8.540;2023-05-07T09:32:58;24.90;95.60
21861;DHT22;11095;48.066;8.540;2023-05-07T09:35:25;24.90;95.50
21861;DHT22;11095;48.066;8.540;2023-05-07T09:37:56;24.70;95.30
21861;DHT22;11095;48.066;8.540;2023-05-07T09:40:27;24.90;95.30
21861;DHT22;11095;48.066;8.540;2023-05-07T09:42:53;25.00;95.30
21861;DHT22;11095;48.066;8.540;2023-05-07T09:45:27;24.50;95.50
21861;DHT22;11095;48.066;8.540;2023-05-07T09:47:57;24.30;96.50
21861;DHT22;11095;48.066;8.540;2023-05-07T09:50:32;24.30;96.60
21861;DHT22;11095;48.066;8.540;2023-05-07T09:53:01;24.10;96.50
21861;DHT22;11095;48.066;8.540;2023-05-07T09:55:27;24.40;96.50
21861;DHT22;11095;48.066;8.540;2023-05-07T09:57:53;24.90;96.40
21861;DHT22;11095;48.066;8.540;2023-05-07T10:00:21;25.10;95.80
21861;DHT22;11095;48.066;8.540;2023-05-07T10:02:49;25.40;95.60
21861;DHT22;11095;48.066;8.540;2023-05-07T10:05:17;25.50;95.70
21861;DHT22;11095;48.066;8.540;2023-05-07T10:07:44;25.50;94.90
21861;DHT22;11095;48.066;8.540;2023-05-07T10:10:10;25.50;95.30
21861;DHT22;11095;48.066;8.540;2023-05-07T10:12:36;25.20;95.10
21861;DHT22;11095;48.066;8.540;2023-05-07T10:15:09;24.80;95.90
21861;DHT22;11095;48.066;8.540;2023-05-07T10:17:39;24.60;96.10
21861;DHT22;11095;48.066;8.540;2023-05-07T10:20:06;24.60;95.90
21861;DHT22;11095;48.066;8.540;2023-05-07T10:22:38;24.50;96.10
21861;DHT22;11095;48.066;8.540;2023-05-07T10:25:09;24.30;96.30
21861;DHT22;11095;48.066;8.540;2023-05-07T10:27:39;24.30;95.80
21861;DHT22;11095;48.066;8.540;2023-05-07T10:32:50;23.90;96.70
21861;DHT22;11095;48.066;8.540;2023-05-07T10:35:26;23.80;97.70
21861;DHT22;11095;48.066;8.540;2023-05-07T10:37:52;24.00;97.70
21861;DHT22;11095;48.066;8.540;2023-05-07T10:40:19;24.10;97.50
21861;DHT22;11095;48.066;8.540;2023-05-07T10:43:02;24.10;97.90
21861;DHT22;11095;48.066;8.540;2023-05-07T10:45:30;24.10;98.30
21861;DHT22;11095;48.066;8.540;2023-05-07T10:48:15;24.00;98.30
21861;DHT22;11095;48.066;8.540;2023-05-07T10:50:42;23.90;99.40
21861;DHT22;11095;48.066;8.540;2023-05-07T10:55:51;23.40;99.90
21861;DHT22;11095;48.066;8.540;2023-05-07T10:58:24;23.30;99.90
21861;DHT22;11095;48.066;8.540;2023-05-07T11:01:02;23.10;99.90
21861;DHT22;11095;48.066;8.540;2023-05-07T11:03:28;22.90;99.90
21861;DHT22;11095;48.066;8.540;2023-05-07T11:06:15;22.70;99.90
21861;DHT22;11095;48.066;8.540;2023-05-07T11:08:57;22.40;99.90
21861;DHT22;11095;48.066;8.540;2023-05-07T11:11:45;22.00;99.90
21861;DHT22;11095;48.066;8.540;2023-05-07T11:17:09;21.50;99.90
21861;DHT22;11095;48.066;8.540;2023-05-07T11:19:51;21.30;99.90
21861;DHT22;11095;48.066;8.540;2023-05-07T11:25:02;20.80;99.90
21861;DHT22;11095;48.066;8.540;2023-05-07T11:27:29;20.60;99.90
21861;DHT22;11095;48.066;8.540;2023-05-07T11:29:55;20.20;99.90
21861;DHT22;11095;48.066;8.540;2023-05-07T11:32:27;19.70;99.90
21861;DHT22;11095;48.066;8.540;2023-05-07T11:34:54;19.30;99.90
21861;DHT22;11095;48.066;8.540;2023-05-07T11:37:21;18.90;99.90
21861;DHT22;11095;48.066;8.540;2023-05-07T11:39:47;18.50;99.90
21861;DHT22;11095;48.066;8.540;2023-05-07T11:42:33;18.10;99.90
21861;DHT22;11095;48.066;8.540;2023-05-07T11:44:59;17.70;99.90
21861;DHT22;11095;48.066;8.540;2023-05-07T11:47:25;17.50;99.90
21861;DHT22;11095;48.066;8.540;2023-05-07T11:49:52;17.20;99.90
21861;DHT22;11095;48.066;8.540;2023-05-07T11:52:20;17.00;99.90
21861;DHT22;11095;48.066;8.540;2023-05-07T11:54:53;16.80;99.90
21861;DHT22;11095;48.066;8.540;2023-05-07T11:57:19;16.50;99.90
21861;DHT22;11095;48.066;8.540;2023-05-07T11:59:45;16.20;99.90
21861;DHT22;11095;48.066;8.540;2023-05-07T12:02:17;16.00;99.90
21861;DHT22;11095;48.066;8.540;2023-05-07T12:04:43;15.80;99.90
21861;DHT22;11095;48.066;8.540;2023-05-07T12:07:15;15.60;99.90
21861;DHT22;11095;48.066;8.540;2023-05-07T12:09:41;15.40;99.90
21861;DHT22;11095;48.066;8.540;2023-05-07T12:12:08;15.30;99.90
21861;DHT22;11095;48.066;8.540;2023-05-07T12:14:41;15.30;99.90
21861;DHT22;11095;48.066;8.540;2023-05-07T12:17:07;15.30;99.90
21861;DHT22;11095;48.066;8.540;2023-05-07T12:19:34;15.30;99.90
21861;DHT22;11095;48.066;8.540;2023-05-07T12:22:02;15.30;99.90
21861;DHT22;11095;48.066;8.540;2023-05-07T12:24:28;15.30;99.90
21861;DHT22;11095;48.066;8.540;2023-05-07T12:26:53;15.30;99.90
21861;DHT22;11095;48.066;8.540;2023-05-07T12:29:23;15.20;99.90
21861;DHT22;11095;48.066;8.540;2023-05-07T12:31:49;15.10;99.90
21861;DHT22;11095;48.066;8.540;2023-05-07T12:34:15;15.00;99.90
21861;DHT22;11095;48.066;8.540;2023-05-07T12:36:41;15.00;99.90
21861;DHT22;11095;48.066;8.540;2023-05-07T12:39:08;15.00;99.90
21861;DHT22;11095;48.066;8.540;2023-05-07T12:41:53;14.90;99.90
21861;DHT22;11095;48.066;8.540;2023-05-07T12:44:22;14.80;99.90
21861;DHT22;11095;48.066;8.540;2023-05-07T12:46:47;14.70;99.90
21861;DHT22;11095;48.066;8.540;2023-05-07T12:49:13;14.70;99.90
21861;DHT22;11095;48.066;8.540;2023-05-07T12:51:39;14.80;99.90
21861;DHT22;11095;48.066;8.540;2023-05-07T12:54:04;14.90;99.90
21861;DHT22;11095;48.066;8.540;2023-05-07T12:56:36;15.00;99.90
21861;DHT22;11095;48.066;8.540;2023-05-07T12:59:02;15.10;99.90
21861;DHT22;11095;48.066;8.540;2023-05-07T13:01:31;15.20;99.90
21861;DHT22;11095;48.066;8.540;2023-05-07T13:04:03;15.30;99.90
21861;DHT22;11095;48.066;8.540;2023-05-07T13:06:30;15.40;99.90
21861;DHT22;11095;48.066;8.540;2023-05-07T13:08:56;15.50;99.90
21861;DHT22;11095;48.066;8.540;2023-05-07T13:11:22;15.60;99.90
21861;DHT22;11095;48.066;8.540;2023-05-07T13:13:48;15.70;99.90
21861;DHT22;11095;48.066;8.540;2023-05-07T13:16:13;15.90;99.90
21861;DHT22;11095;48.066;8.540;2023-05-07T13:18:40;16.00;99.90
21861;DHT22;11095;48.066;8.540;2023-05-07T13:21:06;15.90;99.90
21861;DHT22;11095;48.066;8.540;2023-05-07T13:23:32;15.80;99.90
21861;DHT22;11095;48.066;8.540;2023-05-07T13:25:57;15.50;99.90
21861;DHT22;11095;48.066;8.540;2023-05-07T13:28:24;14.80;99.90
21861;DHT22;11095;48.066;8.540;2023-05-07T13:30:49;14.60;99.90
21861;DHT22;11095;48.066;8.540;2023-05-07T13:33:17;14.80;99.90
21861;DHT22;11095;48.066;8.540;2023-05-07T13:35:42;15.00;99.90
21861;DHT22;11095;48.066;8.540;2023-05-07T13:38:08;15.10;99.90
21861;DHT22;11095;48.066;8.540;2023-05-07T13:40:34;15.10;99.90
21861;DHT22;11095;48.066;8.540;2023-05-07T13:43:00;15.20;99.90
21861;DHT22;11095;48.066;8.540;2023-05-07T13:45:29;15.50;99.90
21861;DHT22;11095;48.066;8.540;2023-05-07T13:47:56;15.50;99.90
21861;DHT22;11095;48.066;8.540;2023-05-07T13:50:22;15.40;99.90
21861;DHT22;11095;48.066;8.540;2023-05-07T13:52:47;15.50;99.90
21861;DHT22;11095;48.066;8.540;2023-05-07T13:55:19;15.60;99.90
21861;DHT22;11095;48.066;8.540;2023-05-07T13:57:46;15.70;99.90
21861;DHT22;11095;48.066;8.540;2023-05-07T14:00:12;16.10;99.90
21861;DHT22;11095;48.066;8.540;2023-05-07T14:02:38;16.50;99.90
21861;DHT22;11095;48.066;8.540;2023-05-07T14:05:04;16.90;99.90
21861;DHT22;11095;48.066;8.540;2023-05-07T14:07:30;16.90;99.90
21861;DHT22;11095;48.066;8.540;2023-05-07T14:09:56;17.10;99.90
21861;DHT22;11095;48.066;8.540;2023-05-07T14:12:22;17.40;99.90
21861;DHT22;11095;48.066;8.540;2023-05-07T14:14:48;17.30;99.90
21861;DHT22;11095;48.066;8.540;2023-05-07T14:17:16;17.50;99.90
21861;DHT22;11095;48.066;8.540;2023-05-07T14:19:42;17.20;99.90
21861;DHT22;11095;48.066;8.540;2023-05-07T14:22:08;17.40;99.90
21861;DHT22;11095;48.066;8.540;2023-05-07T14:24:33;17.60;99.90
21861;DHT22;11095;48.066;8.540;2023-05-07T14:26:59;17.60;99.90
21861;DHT22;11095;48.066;8.540;2023-05-07T14:29:25;17.80;99.90
21861;DHT22;11095;48.066;8.540;2023-05-07T14:31:51;17.90;99.90
21861;DHT22;11095;48.066;8.540;2023-05-07T14:34:16;17.90;99.90
21861;DHT22;11095;48.066;8.540;2023-05-07T14:36:42;17.90;99.90
21861;DHT22;11095;48.066;8.540;2023-05-07T14:39:09;17.80;99.90
21861;DHT22;11095;48.066;8.540;2023-05-07T14:41:35;17.70;99.90
21861;DHT22;11095;48.066;8.540;2023-05-07T14:44:00;17.50;99.90
21861;DHT22;11095;48.066;8.540;2023-05-07T14:46:27;17.50;99.90
21861;DHT22;11095;48.066;8.540;2023-05-07T14:48:52;17.40;99.90
21861;DHT22;11095;48.066;8.540;2023-05-07T14:51:20;17.40;99.90
21861;DHT22;11095;48.066;8.540;2023-05-07T14:53:46;17.30;99.90
21861;DHT22;11095;48.066;8.540;2023-05-07T14:56:11;17.10;99.90
21861;DHT22;11095;48.066;8.540;2023-05-07T14:58:37;16.90;99.90
21861;DHT22;11095;48.066;8.540;2023-05-07T15:01:03;16.50;99.90
21861;DHT22;11095;48.066;8.540;2023-05-07T15:03:29;16.40;99.90
21861;DHT22;11095;48.066;8.540;2023-05-07T15:05:55;16.40;99.90
21861;DHT22;11095;48.066;8.540;2023-05-07T15:08:21;16.40;99.90
21861;DHT22;11095;48.066;8.540;2023-05-07T15:10:46;16.20;99.90
21861;DHT22;11095;48.066;8.540;2023-05-07T15:13:12;16.30;99.90
21861;DHT22;11095;48.066;8.540;2023-05-07T15:15:38;16.60;99.90
21861;DHT22;11095;48.066;8.540;2023-05-07T15:18:04;16.70;99.90
21861;DHT22;11095;48.066;8.540;2023-05-07T15:20:30;16.30;99.90
21861;DHT22;11095;48.066;8.540;2023-05-07T15:22:56;16.30;99.90
21861;DHT22;11095;48.066;8.540;2023-05-07T15:25:22;16.40;99.90
21861;DHT22;11095;48.066;8.540;2023-05-07T15:27:48;16.30;99.90
21861;DHT22;11095;48.066;8.540;2023-05-07T15:30:14;16.20;99.90
21861;DHT22;11095;48.066;8.540;2023-05-07T15:32:40;16.40;99.90
21861;DHT22;11095;48.066;8.540;2023-05-07T15:35:07;16.10;99.90
21861;DHT22;11095;48.066;8.540;2023-05-07T15:37:33;16.40;99.90
21861;DHT22;11095;48.066;8.540;2023-05-07T15:39:58;16.60;99.90